createdAt,value
2023-05-24T00:00:53.363Z,59.36
2023-05-24T00:02:03.882Z,60.53
2023-05-24T00:03:07.168Z,60.71
2023-05-24T00:04:11.281Z,60.75
2023-05-24T00:05:14.975Z,60.34
2023-05-24T00:06:18.685Z,60.32
2023-05-24T00:07:21.544Z,60.38
2023-05-24T00:08:24.563Z,60.11
2023-05-24T00:09:27.270Z,60.02
2023-05-24T00:10:29.984Z,60.60
2023-05-24T00:11:32.825Z,60.59
2023-05-24T00:12:36.205Z,60.47
2023-05-24T00:13:39.757Z,59.40
2023-05-24T00:14:42.612Z,59.02
2023-05-24T00:15:45.320Z,59.25
2023-05-24T00:16:48.260Z,59.95
2023-05-24T00:17:51.858Z,60.26
2023-05-24T00:18:55.011Z,60.18
2023-05-24T00:19:58.321Z,60.72
2023-05-24T00:21:01.277Z,61.48
2023-05-24T00:22:04.458Z,60.87
2023-05-24T00:23:08.219Z,60.93
2023-05-24T00:24:11.489Z,60.80
2023-05-24T00:25:14.346Z,60.81
2023-05-24T00:26:22.778Z,61.10
2023-05-24T00:27:29.188Z,61.28
2023-05-24T00:28:32.410Z,60.88
2023-05-24T00:29:35.377Z,59.42
2023-05-24T00:30:38.344Z,58.34
2023-05-24T00:31:41.198Z,57.37
2023-05-24T00:32:44.026Z,57.72
2023-05-24T00:33:46.766Z,57.99
2023-05-24T00:34:49.664Z,58.56
2023-05-24T00:35:56.429Z,59.16
2023-05-24T00:36:59.144Z,57.93
2023-05-24T00:38:02.411Z,57.39
2023-05-24T00:39:05.192Z,56.88
2023-05-24T00:40:08.538Z,57.13
2023-05-24T00:41:11.721Z,57.37
2023-05-24T00:42:14.508Z,57.35
2023-05-24T00:43:17.369Z,57.46
2023-05-24T00:44:20.229Z,57.47
2023-05-24T00:45:24.616Z,57.53
2023-05-24T00:46:28.880Z,57.87
2023-05-24T00:47:31.835Z,58.19
2023-05-24T00:48:35.122Z,58.33
2023-05-24T00:49:38.171Z,58.49
2023-05-24T00:50:41.985Z,57.81
2023-05-24T00:51:44.924Z,57.63
2023-05-24T00:52:47.970Z,57.51
2023-05-24T00:53:50.863Z,57.46
2023-05-24T00:54:53.742Z,57.52
2023-05-24T00:55:56.641Z,58.69
2023-05-24T00:56:59.430Z,60.35
2023-05-24T00:58:02.682Z,62.29
2023-05-24T00:59:05.919Z,62.79
2023-05-24T01:00:09.578Z,62.07
2023-05-24T01:01:12.778Z,62.28
2023-05-24T01:02:21.227Z,62.69
2023-05-24T01:03:24.508Z,62.92
2023-05-24T01:04:28.138Z,62.44
2023-05-24T01:05:30.941Z,61.71
2023-05-24T01:06:44.970Z,62.19
2023-05-24T01:07:47.813Z,62.27
2023-05-24T01:08:50.562Z,60.05
2023-05-24T01:10:03.409Z,60.63
2023-05-24T01:11:11.728Z,61.48
2023-05-24T01:12:20.685Z,63.46
2023-05-24T01:13:33.699Z,65.23
2023-05-24T01:14:42.574Z,64.00
2023-05-24T01:16:27.591Z,63.69
2023-05-24T01:18:57.292Z,66.33
2023-05-24T01:20:08.966Z,63.71
2023-05-24T01:21:16.569Z,63.98
2023-05-24T01:22:36.032Z,64.54
2023-05-24T01:23:51.241Z,66.13
2023-05-24T01:25:02.162Z,64.27
2023-05-24T01:26:18.482Z,65.56
2023-05-24T01:27:22.883Z,65.72
2023-05-24T01:28:27.541Z,66.44
2023-05-24T01:29:31.295Z,66.64
2023-05-24T01:31:29.418Z,65.35
2023-05-24T01:32:32.899Z,65.75
2023-05-24T01:33:35.861Z,65.91
2023-05-24T01:34:38.611Z,59.64
2023-05-24T01:35:42.524Z,59.54
2023-05-24T01:36:45.678Z,58.52
2023-05-24T01:37:48.486Z,58.67
2023-05-24T01:38:51.655Z,59.23
2023-05-24T01:39:55.137Z,59.59
2023-05-24T01:41:01.570Z,59.77
2023-05-24T01:42:07.210Z,59.57
2023-05-24T01:43:12.832Z,59.99
2023-05-24T01:44:29.182Z,60.30
2023-05-24T01:45:43.911Z,60.67
2023-05-24T01:46:50.454Z,60.44
2023-05-24T01:48:03.187Z,60.40
2023-05-24T02:02:06.038Z,67.42
2023-05-24T02:03:09.004Z,67.49
2023-05-24T02:04:12.304Z,67.13
2023-05-24T02:05:15.040Z,66.71
2023-05-24T02:06:17.781Z,67.20
2023-05-24T02:07:20.931Z,67.41
2023-05-24T02:08:23.596Z,67.51
2023-05-24T02:09:27.684Z,67.47
2023-05-24T02:10:30.543Z,67.47
2023-05-24T02:11:33.291Z,67.41
2023-05-24T02:12:36.384Z,67.39
2023-05-24T02:13:39.100Z,67.35
2023-05-24T02:14:42.797Z,67.24
2023-05-24T02:15:46.560Z,67.11
2023-05-24T02:16:50.789Z,67.02
2023-05-24T02:17:55.123Z,67.03
2023-05-24T02:18:58.027Z,67.09
2023-05-24T02:20:01.092Z,67.09
2023-05-24T02:21:04.276Z,67.00
2023-05-24T02:22:07.393Z,66.84
2023-05-24T02:23:10.396Z,66.62
2023-05-24T02:24:13.215Z,66.40
2023-05-24T02:25:16.409Z,65.24
2023-05-24T02:26:19.521Z,65.51
2023-05-24T02:27:22.221Z,65.81
2023-05-24T02:28:25.275Z,65.89
2023-05-24T02:29:28.267Z,65.94
2023-05-24T02:30:31.041Z,65.98
2023-05-24T02:31:33.922Z,65.96
2023-05-24T02:32:37.234Z,65.87
2023-05-24T02:33:40.673Z,65.85
2023-05-24T02:34:44.192Z,65.86
2023-05-24T02:35:46.928Z,65.89
2023-05-24T02:36:49.991Z,65.89
2023-05-24T02:37:53.393Z,65.88
2023-05-24T02:38:56.997Z,65.83
2023-05-24T02:39:59.749Z,65.82
2023-05-24T02:41:02.778Z,65.80
2023-05-24T02:42:05.902Z,65.81
2023-05-24T02:43:09.793Z,65.81
2023-05-24T02:44:12.857Z,65.80
2023-05-24T02:45:15.838Z,65.80
2023-05-24T02:46:18.827Z,65.79
2023-05-24T02:47:21.541Z,65.83
2023-05-24T02:48:24.295Z,65.87
2023-05-24T02:49:27.448Z,65.91
2023-05-24T02:50:30.308Z,65.88
2023-05-24T02:51:33.479Z,65.67
2023-05-24T02:52:36.338Z,65.43
2023-05-24T02:53:39.658Z,64.62
2023-05-24T02:54:42.617Z,64.67
2023-05-24T02:55:46.712Z,65.13
2023-05-24T02:56:49.886Z,65.34
2023-05-24T02:57:54.021Z,65.42
2023-05-24T02:58:56.776Z,65.48
2023-05-24T03:00:00.114Z,65.01
2023-05-24T03:01:02.896Z,64.28
2023-05-24T03:02:05.825Z,64.64
2023-05-24T03:03:08.800Z,59.57
2023-05-24T03:04:11.770Z,59.01
2023-05-24T03:05:14.723Z,59.02
2023-05-24T03:06:17.541Z,58.68
2023-05-24T03:07:22.047Z,59.13
2023-05-24T03:08:24.804Z,59.05
2023-05-24T03:09:27.810Z,59.05
2023-05-24T03:10:31.149Z,59.18
2023-05-24T03:11:33.921Z,59.53
2023-05-24T03:12:36.776Z,59.95
2023-05-24T03:13:40.208Z,60.22
2023-05-24T03:14:43.009Z,60.70
2023-05-24T03:15:46.712Z,60.97
2023-05-24T03:16:49.869Z,61.25
2023-05-24T03:17:52.691Z,61.49
2023-05-24T03:18:56.514Z,61.52
2023-05-24T03:19:59.363Z,61.60
2023-05-24T03:21:02.650Z,61.74
2023-05-24T03:22:05.656Z,61.92
2023-05-24T03:23:09.743Z,61.87
2023-05-24T03:24:13.294Z,61.57
2023-05-24T03:25:16.550Z,61.44
2023-05-24T03:26:20.489Z,61.50
2023-05-24T03:27:23.293Z,61.56
2023-05-24T03:28:27.535Z,61.16
2023-05-24T03:29:30.589Z,60.96
2023-05-24T03:30:33.537Z,60.78
2023-05-24T03:31:36.578Z,61.11
2023-05-24T03:32:39.497Z,61.78
2023-05-24T03:33:42.438Z,62.35
2023-05-24T03:34:45.319Z,62.34
2023-05-24T03:35:48.039Z,62.89
2023-05-24T03:36:51.163Z,63.66
2023-05-24T03:37:54.232Z,65.03
2023-05-24T03:38:58.512Z,66.46
2023-05-24T03:40:04.594Z,67.02
2023-05-24T03:41:16.486Z,67.65
2023-05-24T03:42:19.876Z,67.93
2023-05-24T03:43:22.586Z,68.24
2023-05-24T03:44:31.634Z,68.45
2023-05-24T03:45:39.894Z,68.54
2023-05-24T03:46:43.289Z,68.49
2023-05-24T03:47:46.682Z,68.39
2023-05-24T03:48:49.790Z,68.16
2023-05-24T03:49:52.620Z,67.95
2023-05-24T03:50:55.507Z,67.73
2023-05-24T03:51:58.344Z,67.49
2023-05-24T03:53:01.271Z,65.77
2023-05-24T03:54:04.044Z,66.60
2023-05-24T03:55:06.958Z,66.35
2023-05-24T03:56:09.663Z,60.96
2023-05-24T03:57:12.565Z,61.18
2023-05-24T03:58:15.445Z,63.45
2023-05-24T03:59:18.169Z,64.35
2023-05-24T04:00:21.232Z,63.38
2023-05-24T04:01:33.352Z,59.41
2023-05-24T04:02:38.276Z,60.48
2023-05-24T04:03:41.555Z,59.12
2023-05-24T04:04:44.949Z,59.68
2023-05-24T04:05:49.298Z,59.54
2023-05-24T04:06:53.871Z,59.36
2023-05-24T04:07:56.809Z,59.20
2023-05-24T04:09:00.214Z,59.25
2023-05-24T04:10:06.646Z,59.05
2023-05-24T04:11:09.389Z,59.16
2023-05-24T04:12:13.398Z,59.60
2023-05-24T04:13:17.672Z,59.97
2023-05-24T04:14:20.643Z,60.32
2023-05-24T04:15:24.032Z,61.20
2023-05-24T04:16:27.575Z,60.94
2023-05-24T04:17:34.935Z,61.20
2023-05-24T04:18:38.018Z,61.76
2023-05-24T04:19:41.052Z,61.70
2023-05-24T04:20:44.129Z,61.37
2023-05-24T04:21:47.119Z,61.11
2023-05-24T04:22:49.996Z,60.90
2023-05-24T04:23:52.753Z,61.59
2023-05-24T04:24:55.635Z,61.24
2023-05-24T04:25:58.492Z,60.96
2023-05-24T04:27:01.297Z,60.89
2023-05-24T04:28:04.113Z,61.62
2023-05-24T04:29:07.833Z,62.05
2023-05-24T04:30:12.021Z,61.45
2023-05-24T04:31:16.439Z,61.92
2023-05-24T04:32:19.924Z,61.37
2023-05-24T04:33:23.397Z,61.59
2023-05-24T04:34:26.188Z,62.10
2023-05-24T04:35:30.191Z,61.75
2023-05-24T04:36:33.968Z,62.14
2023-05-24T04:37:36.700Z,61.97
2023-05-24T04:38:40.847Z,61.69
2023-05-24T04:39:46.858Z,61.51
2023-05-24T04:40:49.857Z,61.61
2023-05-24T04:41:53.430Z,61.62
2023-05-24T04:42:56.222Z,62.25
2023-05-24T04:44:01.851Z,63.03
2023-05-24T04:45:04.715Z,62.87
2023-05-24T04:46:09.399Z,62.79
2023-05-24T04:47:12.956Z,63.03
2023-05-24T04:48:15.658Z,62.83
2023-05-24T04:49:18.347Z,62.74
2023-05-24T04:50:21.025Z,63.19
2023-05-24T04:51:23.965Z,61.83
2023-05-24T04:52:26.760Z,61.39
2023-05-24T04:53:29.581Z,62.46
2023-05-24T04:54:32.829Z,61.83
2023-05-24T04:55:35.933Z,61.18
2023-05-24T04:56:39.306Z,61.51
2023-05-24T04:57:42.068Z,61.22
2023-05-24T04:58:44.903Z,62.59
2023-05-24T04:59:47.616Z,60.44
2023-05-24T05:00:50.459Z,60.38
2023-05-24T05:01:53.315Z,60.75
2023-05-24T05:02:56.234Z,60.60
2023-05-24T05:03:59.553Z,61.56
2023-05-24T05:05:02.245Z,61.40
2023-05-24T05:06:05.007Z,60.53
2023-05-24T05:07:08.287Z,60.36
2023-05-24T05:08:10.984Z,59.63
2023-05-24T05:09:14.807Z,59.51
2023-05-24T05:10:17.672Z,59.62
2023-05-24T05:11:20.664Z,59.54
2023-05-24T05:12:23.547Z,59.32
2023-05-24T05:13:26.364Z,59.31
2023-05-24T05:14:29.308Z,59.94
2023-05-24T05:15:32.681Z,59.99
2023-05-24T05:16:36.598Z,59.92
2023-05-24T05:17:39.678Z,60.02
2023-05-24T05:18:42.416Z,61.84
2023-05-24T05:19:45.237Z,62.24
2023-05-24T05:20:48.080Z,62.34
2023-05-24T05:21:50.923Z,62.64
2023-05-24T05:22:53.836Z,63.93
2023-05-24T05:23:56.630Z,62.71
2023-05-24T05:25:00.116Z,62.45
2023-05-24T05:26:02.967Z,63.09
2023-05-24T05:27:06.218Z,63.40
2023-05-24T05:28:09.078Z,64.49
2023-05-24T05:29:11.765Z,62.93
2023-05-24T05:30:14.627Z,62.25
2023-05-24T05:31:17.321Z,62.10
2023-05-24T05:32:20.107Z,62.40
2023-05-24T05:33:23.027Z,62.72
2023-05-24T05:34:25.877Z,62.91
2023-05-24T05:35:28.677Z,63.17
2023-05-24T05:36:32.359Z,63.61
2023-05-24T05:37:35.107Z,65.45
2023-05-24T05:38:37.902Z,63.66
2023-05-24T05:39:41.024Z,62.23
2023-05-24T05:40:44.192Z,62.46
2023-05-24T05:41:47.232Z,62.61
2023-05-24T05:42:50.106Z,62.64
2023-05-24T05:43:52.807Z,62.29
2023-05-24T05:44:55.554Z,62.33
2023-05-24T05:45:58.330Z,62.69
2023-05-24T05:47:01.111Z,62.41
2023-05-24T05:48:03.979Z,63.04
2023-05-24T05:49:06.944Z,63.07
2023-05-24T05:50:09.845Z,63.23
2023-05-24T05:51:12.795Z,63.27
2023-05-24T05:52:15.678Z,63.92
2023-05-24T05:53:18.440Z,64.75
2023-05-24T05:54:21.392Z,62.99
2023-05-24T05:55:24.485Z,62.97
2023-05-24T05:56:27.806Z,63.18
2023-05-24T05:57:30.558Z,63.06
2023-05-24T05:58:33.561Z,62.86
2023-05-24T05:59:36.423Z,62.84
2023-05-24T06:00:40.467Z,63.52
2023-05-24T06:01:44.000Z,63.45
2023-05-24T06:02:46.792Z,62.46
2023-05-24T06:03:51.001Z,62.12
2023-05-24T06:04:54.130Z,61.89
2023-05-24T06:05:57.031Z,62.30
2023-05-24T06:06:59.888Z,62.20
2023-05-24T06:08:03.386Z,61.98
2023-05-24T06:09:07.868Z,61.77
2023-05-24T06:10:11.013Z,61.62
2023-05-24T06:11:14.078Z,61.91
2023-05-24T06:12:16.852Z,61.32
2023-05-24T06:13:19.536Z,61.63
2023-05-24T06:14:22.377Z,61.08
2023-05-24T06:15:25.408Z,61.09
2023-05-24T06:16:28.749Z,61.37
2023-05-24T06:17:31.582Z,61.31
2023-05-24T06:18:34.633Z,61.20
2023-05-24T06:19:37.380Z,60.85
2023-05-24T06:20:40.370Z,60.83
2023-05-24T06:21:47.804Z,60.88
2023-05-24T06:22:50.862Z,60.58
2023-05-24T06:23:53.610Z,60.61
2023-05-24T06:24:56.347Z,60.70
2023-05-24T06:25:59.151Z,61.24
2023-05-24T06:27:03.311Z,60.63
2023-05-24T06:28:07.955Z,60.42
2023-05-24T06:29:10.655Z,60.44
2023-05-24T06:30:13.919Z,60.77
2023-05-24T06:31:16.850Z,60.91
2023-05-24T06:32:19.556Z,60.81
2023-05-24T06:33:22.597Z,60.07
2023-05-24T06:34:25.716Z,59.96
2023-05-24T06:35:28.510Z,59.95
2023-05-24T06:36:34.266Z,60.33
2023-05-24T06:37:38.634Z,60.15
2023-05-24T06:38:41.618Z,60.18
2023-05-24T06:39:44.388Z,59.69
2023-05-24T06:40:47.243Z,59.42
2023-05-24T06:41:51.456Z,59.00
2023-05-24T06:42:58.769Z,59.22
2023-05-24T06:44:01.695Z,59.48
2023-05-24T06:45:04.564Z,59.32
2023-05-24T06:46:07.764Z,59.06
2023-05-24T06:47:10.668Z,59.69
2023-05-24T06:48:13.503Z,59.40
2023-05-24T06:49:16.340Z,59.87
2023-05-24T06:50:19.518Z,60.21
2023-05-24T06:51:22.590Z,60.37
2023-05-24T06:52:25.462Z,60.05
2023-05-24T06:53:28.145Z,59.63
2023-05-24T06:54:31.096Z,60.72
2023-05-24T06:55:33.787Z,60.64
2023-05-24T06:56:36.561Z,60.29
2023-05-24T06:57:39.431Z,59.91
2023-05-24T06:58:42.203Z,59.87
2023-05-24T06:59:45.056Z,60.27
2023-05-24T07:00:48.045Z,60.11
2023-05-24T07:01:53.961Z,60.21
2023-05-24T07:02:57.377Z,60.49
2023-05-24T07:04:00.210Z,59.69
2023-05-24T07:05:03.073Z,60.43
2023-05-24T07:06:06.101Z,60.43
2023-05-24T07:07:09.625Z,60.34
2023-05-24T07:08:12.349Z,60.34
2023-05-24T07:09:15.059Z,60.39
2023-05-24T07:10:17.820Z,60.44
2023-05-24T07:11:20.686Z,59.74
2023-05-24T07:12:23.752Z,59.22
2023-05-24T07:13:26.716Z,59.95
2023-05-24T07:14:29.407Z,59.63
2023-05-24T07:15:32.150Z,59.22
2023-05-24T07:16:34.929Z,59.34
2023-05-24T07:17:37.726Z,59.11
2023-05-24T07:18:41.894Z,58.70
2023-05-24T07:19:45.161Z,58.62
2023-05-24T07:20:48.192Z,58.04
2023-05-24T07:21:51.365Z,58.02
2023-05-24T07:22:54.095Z,57.67
2023-05-24T07:23:57.033Z,57.47
2023-05-24T07:24:59.846Z,57.35
2023-05-24T07:26:03.083Z,57.06
2023-05-24T07:27:05.844Z,56.78
2023-05-24T07:28:08.628Z,56.47
2023-05-24T07:29:11.409Z,56.36
2023-05-24T07:30:27.893Z,55.21
2023-05-24T07:31:35.407Z,55.34
2023-05-24T07:32:38.493Z,55.53
2023-05-24T07:33:41.348Z,55.33
2023-05-24T07:34:44.220Z,55.29
2023-05-24T07:35:51.379Z,55.35
2023-05-24T07:36:54.214Z,55.59
2023-05-24T07:37:57.008Z,55.41
2023-05-24T07:39:01.390Z,54.43
2023-05-24T07:40:05.698Z,54.80
2023-05-24T07:41:08.452Z,54.98
2023-05-24T07:42:11.137Z,54.71
2023-05-24T07:43:13.917Z,53.49
2023-05-24T07:44:16.657Z,52.89
2023-05-24T07:45:19.817Z,53.07
2023-05-24T07:46:22.596Z,53.06
2023-05-24T07:47:25.608Z,53.03
2023-05-24T07:48:28.442Z,53.68
2023-05-24T07:49:31.215Z,53.79
2023-05-24T07:50:34.126Z,53.60
2023-05-24T07:51:37.038Z,53.24
2023-05-24T07:52:39.837Z,53.04
2023-05-24T07:53:42.579Z,53.10
2023-05-24T07:54:45.512Z,53.46
2023-05-24T07:55:48.436Z,53.66
2023-05-24T07:56:51.786Z,53.57
2023-05-24T07:57:54.581Z,52.50
2023-05-24T07:59:03.492Z,52.14
2023-05-24T08:00:14.788Z,52.35
2023-05-24T08:01:20.782Z,52.12
2023-05-24T08:02:24.367Z,52.38
2023-05-24T08:03:27.472Z,52.61
2023-05-24T08:04:31.071Z,52.91
2023-05-24T08:05:33.945Z,53.14
2023-05-24T08:06:37.020Z,53.29
2023-05-24T08:07:40.664Z,53.52
2023-05-24T08:08:43.472Z,53.60
2023-05-24T08:09:46.360Z,53.49
2023-05-24T08:10:49.198Z,53.27
2023-05-24T08:11:51.992Z,53.43
2023-05-24T08:12:56.201Z,53.39
2023-05-24T08:14:00.253Z,53.11
2023-05-24T08:15:05.137Z,53.16
2023-05-24T08:16:08.119Z,53.36
2023-05-24T08:17:11.000Z,53.30
2023-05-24T08:18:13.873Z,53.34
2023-05-24T08:19:16.837Z,53.46
2023-05-24T08:20:19.656Z,53.59
2023-05-24T08:21:22.601Z,53.76
2023-05-24T08:22:25.966Z,53.62
2023-05-24T08:23:30.006Z,53.64
2023-05-24T08:24:32.834Z,53.69
2023-05-24T08:25:36.210Z,53.67
2023-05-24T08:26:39.001Z,53.65
2023-05-24T08:27:41.949Z,53.71
2023-05-24T08:28:44.666Z,53.75
2023-05-24T08:29:47.377Z,53.84
2023-05-24T08:30:50.188Z,53.87
2023-05-24T08:31:53.068Z,53.85
2023-05-24T08:32:56.172Z,53.85
2023-05-24T08:33:59.532Z,53.48
2023-05-24T08:35:18.565Z,53.27
2023-05-24T08:36:22.833Z,53.39
2023-05-24T08:37:25.744Z,53.46
2023-05-24T08:38:29.478Z,53.57
2023-05-24T08:39:32.363Z,53.47
2023-05-24T08:40:35.204Z,52.95
2023-05-24T08:41:38.878Z,53.06
2023-05-24T08:42:41.710Z,53.23
2023-05-24T08:43:46.167Z,53.38
2023-05-24T08:44:53.399Z,53.49
2023-05-24T08:45:58.149Z,53.58
2023-05-24T08:47:01.266Z,53.53
2023-05-24T08:48:05.616Z,53.73
2023-05-24T08:49:12.558Z,53.94
2023-05-24T08:50:15.505Z,54.21
2023-05-24T08:51:18.323Z,54.33
2023-05-24T08:52:21.463Z,54.31
2023-05-24T08:53:24.717Z,54.09
2023-05-24T08:54:27.487Z,53.62
2023-05-24T08:55:33.622Z,53.52
2023-05-24T08:56:37.066Z,53.61
2023-05-24T08:57:41.265Z,53.54
2023-05-24T08:58:45.415Z,53.56
2023-05-24T08:59:48.436Z,53.61
2023-05-24T09:00:51.089Z,53.69
2023-05-24T09:01:54.608Z,53.75
2023-05-24T09:02:58.904Z,53.45
2023-05-24T09:04:03.026Z,53.35
2023-05-24T09:05:08.494Z,53.54
2023-05-24T09:06:12.187Z,53.48
2023-05-24T09:07:17.773Z,53.40
2023-05-24T09:08:20.713Z,53.24
2023-05-24T09:09:27.348Z,53.42
2023-05-24T09:10:45.020Z,53.67
2023-05-24T09:11:57.154Z,53.86
2023-05-24T09:13:02.366Z,54.04
2023-05-24T09:14:05.232Z,54.16
2023-05-24T09:15:08.988Z,54.24
2023-05-24T09:16:12.207Z,54.06
2023-05-24T09:17:15.960Z,53.98
2023-05-24T09:18:18.846Z,53.20
2023-05-24T09:19:21.719Z,52.63
2023-05-24T09:20:24.631Z,52.87
2023-05-24T09:21:27.841Z,52.96
2023-05-24T09:22:30.976Z,53.14
2023-05-24T09:23:34.261Z,53.29
2023-05-24T09:24:41.071Z,53.33
2023-05-24T09:25:47.298Z,53.37
2023-05-24T09:26:51.129Z,53.48
2023-05-24T09:27:54.014Z,53.60
2023-05-24T09:28:57.707Z,53.33
2023-05-24T09:30:01.683Z,53.32
2023-05-24T09:31:07.411Z,52.87
2023-05-24T09:32:11.191Z,52.73
2023-05-24T09:33:14.068Z,52.85
2023-05-24T09:34:17.310Z,52.98
2023-05-24T09:35:20.059Z,52.89
2023-05-24T09:36:22.843Z,52.72
2023-05-24T09:37:31.097Z,52.29
2023-05-24T09:38:36.638Z,51.56
2023-05-24T09:39:43.032Z,51.62
2023-05-24T09:40:45.830Z,51.67
2023-05-24T09:41:57.888Z,51.64
2023-05-24T09:43:09.233Z,51.44
2023-05-24T09:44:14.399Z,51.40
2023-05-24T09:45:17.530Z,50.80
2023-05-24T09:46:21.691Z,50.88
2023-05-24T09:47:28.489Z,50.62
2023-05-24T09:48:31.985Z,50.48
2023-05-24T09:49:37.121Z,50.22
2023-05-24T09:50:40.418Z,50.53
2023-05-24T09:51:43.775Z,50.42
2023-05-24T09:52:46.630Z,50.13
2023-05-24T09:53:52.379Z,50.16
2023-05-24T09:54:55.577Z,50.14
2023-05-24T09:55:58.402Z,49.85
2023-05-24T09:57:03.527Z,49.62
2023-05-24T09:58:08.584Z,49.91
2023-05-24T09:59:11.745Z,50.40
2023-05-24T10:00:16.228Z,50.48
2023-05-24T10:01:22.648Z,50.11
2023-05-24T10:02:26.012Z,50.27
2023-05-24T10:03:28.971Z,49.94
2023-05-24T10:04:34.955Z,49.73
2023-05-24T10:05:38.633Z,49.72
2023-05-24T10:06:43.037Z,49.68
2023-05-24T10:07:46.321Z,49.72
2023-05-24T10:08:49.521Z,50.01
2023-05-24T10:09:52.603Z,49.45
2023-05-24T10:10:56.207Z,49.40
2023-05-24T10:11:59.796Z,49.66
2023-05-24T10:13:02.869Z,49.78
2023-05-24T10:14:07.189Z,49.76
2023-05-24T10:15:10.898Z,50.12
2023-05-24T10:16:13.784Z,50.51
2023-05-24T10:17:16.723Z,50.88
2023-05-24T10:18:19.979Z,51.05
2023-05-24T10:19:23.467Z,50.98
2023-05-24T10:20:26.888Z,51.04
2023-05-24T10:21:31.640Z,51.38
2023-05-24T10:22:37.423Z,51.53
2023-05-24T10:23:42.404Z,51.64
2023-05-24T10:24:47.122Z,51.63
2023-05-24T10:25:51.570Z,51.61
2023-05-24T10:26:55.600Z,51.53
2023-05-24T10:28:00.665Z,50.99
2023-05-24T10:29:06.791Z,51.11
2023-05-24T10:30:14.259Z,51.34
2023-05-24T10:31:29.860Z,51.44
2023-05-24T10:32:34.958Z,51.60
2023-05-24T10:33:38.417Z,51.50
2023-05-24T10:34:42.859Z,51.16
2023-05-24T10:35:46.000Z,50.84
2023-05-24T10:36:49.005Z,50.69
2023-05-24T10:37:52.459Z,50.84
2023-05-24T10:38:56.117Z,51.01
2023-05-24T10:39:59.464Z,51.22
2023-05-24T10:41:02.689Z,51.41
2023-05-24T10:42:09.394Z,51.47
2023-05-24T10:43:12.700Z,51.49
2023-05-24T10:44:18.599Z,51.79
2023-05-24T10:45:27.430Z,51.60
2023-05-24T10:46:32.891Z,51.46
2023-05-24T10:47:39.059Z,51.51
2023-05-24T10:48:42.541Z,51.63
2023-05-24T10:49:57.819Z,51.84
2023-05-24T10:51:23.828Z,51.94
2023-05-24T10:52:36.328Z,52.01
2023-05-24T10:53:40.308Z,52.19
2023-05-24T10:55:06.202Z,52.21
2023-05-24T10:56:09.508Z,52.27
2023-05-24T10:57:12.383Z,51.94
2023-05-24T10:58:15.708Z,51.91
2023-05-24T10:59:28.814Z,51.85
2023-05-24T11:00:35.806Z,52.03
2023-05-24T11:01:39.179Z,52.04
2023-05-24T11:02:42.007Z,52.15
2023-05-24T11:03:45.240Z,52.51
2023-05-24T11:04:49.298Z,52.13
2023-05-24T11:05:54.490Z,51.82
2023-05-24T11:07:01.572Z,51.87
2023-05-24T11:08:07.045Z,51.96
2023-05-24T11:09:10.748Z,51.68
2023-05-24T11:10:19.273Z,51.77
2023-05-24T11:11:28.596Z,51.99
2023-05-24T11:12:38.670Z,52.10
2023-05-24T11:13:41.647Z,52.31
2023-05-24T11:14:51.517Z,52.18
2023-05-24T11:15:54.866Z,51.85
2023-05-24T11:16:58.194Z,51.47
2023-05-24T11:18:07.205Z,50.91
2023-05-24T11:19:21.182Z,50.33
2023-05-24T11:20:24.148Z,50.36
2023-05-24T11:21:27.917Z,50.16
2023-05-24T11:22:31.642Z,50.47
2023-05-24T11:23:37.991Z,50.28
2023-05-24T11:24:41.942Z,49.89
2023-05-24T11:25:47.197Z,49.87
2023-05-24T11:26:50.267Z,49.87
2023-05-24T11:27:53.561Z,49.86
2023-05-24T11:28:57.266Z,50.07
2023-05-24T11:30:01.069Z,49.91
2023-05-24T11:31:08.061Z,49.45
2023-05-24T11:32:14.753Z,48.51
2023-05-24T11:33:18.854Z,48.53
2023-05-24T11:34:22.030Z,48.43
2023-05-24T11:35:30.533Z,47.66
2023-05-24T11:36:33.560Z,47.15
2023-05-24T11:37:46.049Z,46.74
2023-05-24T11:38:50.093Z,47.13
2023-05-24T11:39:53.228Z,47.22
2023-05-24T11:40:58.240Z,47.14
2023-05-24T11:42:04.096Z,46.87
2023-05-24T11:43:07.182Z,46.36
2023-05-24T11:44:10.856Z,46.28
2023-05-24T11:45:14.672Z,46.00
2023-05-24T11:46:19.383Z,46.50
2023-05-24T11:47:25.124Z,46.37
2023-05-24T11:48:29.183Z,45.84
2023-05-24T11:49:32.046Z,45.65
2023-05-24T11:50:49.535Z,45.02
2023-05-24T11:51:57.037Z,44.22
2023-05-24T11:53:03.791Z,44.65
2023-05-24T11:54:06.933Z,44.98
2023-05-24T11:55:16.633Z,44.94
2023-05-24T11:56:21.616Z,44.67
2023-05-24T11:57:29.615Z,44.95
2023-05-24T11:58:39.792Z,44.69
2023-05-24T11:59:42.674Z,45.05
2023-05-24T12:00:47.098Z,43.90
2023-05-24T12:01:51.563Z,44.48
2023-05-24T12:03:01.761Z,43.90
2023-05-24T12:04:09.750Z,44.08
2023-05-24T12:05:14.532Z,43.72
2023-05-24T12:06:18.133Z,42.79
2023-05-24T12:07:23.828Z,43.53
2023-05-24T12:08:26.791Z,42.92
2023-05-24T12:09:29.539Z,41.51
2023-05-24T12:10:33.479Z,41.35
2023-05-24T12:11:43.486Z,41.61
2023-05-24T12:12:46.952Z,40.57
2023-05-24T12:13:49.964Z,40.40
2023-05-24T12:14:55.169Z,40.51
2023-05-24T12:15:58.511Z,40.23
2023-05-24T12:17:01.438Z,41.28
2023-05-24T12:18:04.288Z,41.26
2023-05-24T12:19:13.938Z,39.48
2023-05-24T12:20:20.610Z,38.49
2023-05-24T12:21:23.745Z,38.92
2023-05-24T12:22:28.321Z,38.02
2023-05-24T12:23:32.804Z,37.79
2023-05-24T12:24:35.750Z,38.57
2023-05-24T12:25:38.618Z,39.06
2023-05-24T12:26:43.211Z,39.68
2023-05-24T12:27:48.163Z,40.56
2023-05-24T12:28:55.170Z,40.37
2023-05-24T12:30:06.276Z,39.57
2023-05-24T12:31:09.617Z,39.63
2023-05-24T12:32:13.979Z,39.67
2023-05-24T12:33:21.118Z,39.43
2023-05-24T12:34:24.238Z,40.05
2023-05-24T12:35:27.102Z,40.32
2023-05-24T12:36:30.164Z,39.84
2023-05-24T12:37:33.684Z,38.42
2023-05-24T12:38:36.426Z,38.42
2023-05-24T12:39:39.751Z,37.77
2023-05-24T12:40:44.636Z,36.98
2023-05-24T12:41:54.381Z,34.95
2023-05-24T12:42:58.046Z,35.03
2023-05-24T12:44:00.934Z,34.44
2023-05-24T12:45:03.785Z,34.27
2023-05-24T12:46:06.957Z,35.15
2023-05-24T12:47:10.225Z,34.73
2023-05-24T12:48:13.315Z,34.83
2023-05-24T12:49:16.636Z,34.31
2023-05-24T12:50:19.898Z,33.73
2023-05-24T12:51:22.781Z,33.18
2023-05-24T12:52:25.504Z,33.77
2023-05-24T12:53:28.537Z,32.68
2023-05-24T12:54:31.340Z,31.65
2023-05-24T12:55:34.247Z,31.97
2023-05-24T12:56:38.156Z,33.02
2023-05-24T12:57:41.420Z,32.93
2023-05-24T12:58:44.614Z,32.44
2023-05-24T12:59:47.539Z,32.46
2023-05-24T13:00:51.986Z,32.55
2023-05-24T13:01:54.984Z,32.38
2023-05-24T13:02:59.476Z,32.42
2023-05-24T13:04:02.945Z,33.05
2023-05-24T13:05:05.920Z,33.28
2023-05-24T13:06:08.863Z,33.41
2023-05-24T13:07:11.717Z,33.12
2023-05-24T13:08:14.697Z,32.86
2023-05-24T13:09:23.752Z,32.24
2023-05-24T13:10:27.572Z,32.08
2023-05-24T13:11:31.283Z,32.06
2023-05-24T13:12:34.178Z,31.83
2023-05-24T13:13:38.304Z,32.13
2023-05-24T13:14:41.543Z,32.61
2023-05-24T13:15:44.721Z,32.30
2023-05-24T13:16:47.688Z,32.69
2023-05-24T13:17:51.243Z,32.47
2023-05-24T13:18:54.306Z,32.53
2023-05-24T13:19:58.847Z,32.20
2023-05-24T13:21:01.604Z,32.20
2023-05-24T13:22:04.538Z,32.50
2023-05-24T13:23:07.949Z,32.66
2023-05-24T13:24:10.666Z,32.82
2023-05-24T13:25:13.812Z,32.77
2023-05-24T13:26:16.591Z,33.42
2023-05-24T13:27:19.506Z,33.14
2023-05-24T13:28:22.328Z,31.98
2023-05-24T13:30:31.159Z,32.21
2023-05-24T13:31:34.080Z,32.14
2023-05-24T13:32:38.470Z,31.23
2023-05-24T13:33:43.103Z,32.59
2023-05-24T13:34:45.882Z,32.37
2023-05-24T13:35:49.911Z,31.77
2023-05-24T13:36:53.363Z,31.66
2023-05-24T13:37:58.026Z,31.69
2023-05-24T13:40:06.979Z,30.95
2023-05-24T13:41:10.145Z,30.83
2023-05-24T13:42:12.939Z,30.53
2023-05-24T13:43:15.816Z,30.13
2023-05-24T13:44:18.712Z,29.68
2023-05-24T13:45:21.567Z,29.20
2023-05-24T13:46:24.988Z,29.22
2023-05-24T13:47:39.206Z,30.21
2023-05-24T13:48:43.153Z,29.72
2023-05-24T13:49:46.283Z,29.84
2023-05-24T13:50:49.208Z,29.89
2023-05-24T13:51:54.874Z,30.40
2023-05-24T13:53:02.217Z,30.40
2023-05-24T13:54:07.207Z,30.14
2023-05-24T13:55:10.858Z,29.90
2023-05-24T13:56:13.929Z,29.23
2023-05-24T13:57:17.377Z,29.01
2023-05-24T13:58:20.149Z,29.31
2023-05-24T13:59:22.941Z,28.96
2023-05-24T14:00:25.704Z,28.71
2023-05-24T14:01:28.569Z,28.63
2023-05-24T14:02:32.142Z,28.55
2023-05-24T14:03:34.982Z,29.02
2023-05-24T14:04:37.714Z,28.93